Time;durP1;ratioP1;P1;durP2;ratioP2;P2;SDS_P1;SDS_P2;PMS_P1;PMS_P2;Temp;Humidity;BMP_temperature;BMP_pressure;BME280_temperature;BME280_humidity;BME280_pressure;Samples;Min_cycle;Max_cycle;Signal;HPM_P1;HPM_P2
2022/05/31 00:01:51;;;;;;;1.60;1.50;;;17.50;57.80;;;;;;5081151;27;20578;-48
2022/05/31 00:04:34;;;;;;;1.30;1.20;;;17.50;56.60;;;;;;5082826;27;20546;-49
2022/05/31 00:07:16;;;;;;;2.10;1.70;;;17.50;56.60;;;;;;5049482;28;21064;-47
2022/05/31 00:09:56;;;;;;;1.60;1.50;;;17.50;56.60;;;;;;5094412;27;20595;-49
2022/05/31 00:12:36;;;;;;;1.20;1.03;;;17.50;56.70;;;;;;5099003;27;21106;-50
2022/05/31 00:15:19;;;;;;;1.13;1.10;;;17.50;56.70;;;;;;5105096;27;20543;-50
2022/05/31 00:18:05;;;;;;;1.20;1.10;;;17.50;56.70;;;;;;5071019;28;20560;-50
2022/05/31 00:20:46;;;;;;;1.37;1.27;;;17.50;56.70;;;;;;5072746;27;20555;-47
2022/05/31 00:23:29;;;;;;;1.13;1.03;;;17.50;56.70;;;;;;5142543;27;20553;-49
2022/05/31 00:26:09;;;;;;;1.20;1.10;;;17.50;56.70;;;;;;5060962;27;20912;-49
2022/05/31 00:28:50;;;;;;;1.47;1.30;;;17.50;56.70;;;;;;5074218;28;20544;-47
2022/05/31 00:31:34;;;;;;;1.93;1.20;;;17.50;56.70;;;;;;5101650;27;20919;-49
2022/05/31 00:34:16;;;;;;;1.10;1.00;;;17.50;56.70;;;;;;5076620;28;20528;-48
2022/05/31 00:36:58;;;;;;;2.50;1.40;;;17.50;56.70;;;;;;5121649;27;20520;-48
2022/05/31 00:39:38;;;;;;;1.20;1.10;;;17.40;56.60;;;;;;5058875;27;20543;-48
2022/05/31 00:42:25;;;;;;;1.23;1.13;;;17.50;56.70;;;;;;5081217;27;20586;-46
2022/05/31 00:45:08;;;;;;;1.40;1.30;;;17.50;56.80;;;;;;5069295;27;20537;-47
2022/05/31 00:47:50;;;;;;;1.30;1.20;;;17.40;56.70;;;;;;5117101;27;20580;-48
2022/05/31 00:50:36;;;;;;;1.40;1.30;;;17.40;56.70;;;;;;5066665;27;20748;-49
2022/05/31 00:53:23;;;;;;;1.40;1.30;;;17.40;56.70;;;;;;5074374;28;20950;-47
2022/05/31 00:56:08;;;;;;;1.50;1.40;;;17.40;56.70;;;;;;5065719;27;20548;-48
2022/05/31 00:58:59;;;;;;;1.60;1.50;;;17.40;56.70;;;;;;5063524;27;20561;-44
2022/05/31 01:01:42;;;;;;;1.30;1.20;;;17.40;56.80;;;;;;5122107;27;20517;-49
2022/05/31 01:04:30;;;;;;;1.30;1.20;;;17.40;56.70;;;;;;5108941;27;20878;-49
2022/05/31 01:07:10;;;;;;;1.80;1.37;;;17.40;56.70;;;;;;5076257;27;20545;-47
2022/05/31 01:09:54;;;;;;;1.80;1.40;;;17.40;56.70;;;;;;5082159;27;21138;-48
2022/05/31 01:13:10;;;;;;;1.70;1.53;;;17.40;56.70;;;;;;5095227;27;21137;-48
2022/05/31 01:16:13;;;;;;;1.47;1.37;;;17.40;56.70;;;;;;5060849;27;20590;-47
2022/05/31 01:22:37;;;;;;;1.63;1.53;;;17.40;56.60;;;;;;5119512;27;20529;-49
2022/05/31 01:25:46;;;;;;;1.30;1.20;;;17.40;56.60;;;;;;5097679;27;21170;-48
2022/05/31 01:28:41;;;;;;;1.77;1.47;;;17.40;56.60;;;;;;5092281;27;21138;-47
2022/05/31 01:31:30;;;;;;;1.30;1.20;;;17.40;56.70;;;;;;5121774;27;20630;-50
2022/05/31 01:34:18;;;;;;;1.63;1.53;;;17.40;56.60;;;;;;5094787;27;20506;-49
2022/05/31 01:36:59;;;;;;;1.40;1.30;;;17.40;56.60;;;;;;5070169;28;20548;-48
2022/05/31 01:39:46;;;;;;;2.10;1.93;;;17.40;56.60;;;;;;5082418;27;20538;-50
2022/05/31 01:42:33;;;;;;;1.83;1.73;;;17.40;56.60;;;;;;5075340;28;20942;-48
2022/05/31 01:45:19;;;;;;;1.53;1.43;;;17.40;56.70;;;;;;5095399;27;20628;-47
2022/05/31 01:48:03;;;;;;;2.10;2.00;;;17.40;56.70;;;;;;5074409;27;20528;-47
2022/05/31 01:50:46;;;;;;;1.90;1.80;;;17.40;56.70;;;;;;5075993;27;20536;-49
2022/05/31 01:53:26;;;;;;;2.03;1.83;;;17.40;56.70;;;;;;5067370;28;20532;-49
2022/05/31 01:56:11;;;;;;;1.87;1.73;;;17.40;56.70;;;;;;5061393;27;20587;-49
2022/05/31 01:58:55;;;;;;;2.00;1.90;;;17.40;56.70;;;;;;5121213;27;20544;-48
2022/05/31 02:01:42;;;;;;;1.83;1.73;;;17.40;56.60;;;;;;5085031;28;20524;-49
2022/05/31 02:04:27;;;;;;;1.73;1.63;;;17.40;56.70;;;;;;5122575;27;21060;-49
2022/05/31 02:07:15;;;;;;;1.90;1.80;;;17.30;56.60;;;;;;5099931;27;20552;-47
2022/05/31 02:09:58;;;;;;;1.80;1.70;;;17.40;56.70;;;;;;5101837;27;20549;-47
2022/05/31 02:12:43;;;;;;;1.50;1.40;;;17.30;56.60;;;;;;5125530;27;20501;-48
2022/05/31 02:15:49;;;;;;;1.77;1.60;;;17.30;56.60;;;;;;5070584;28;20599;-48
2022/05/31 02:21:51;;;;;;;1.70;1.60;;;17.30;56.50;;;;;;5088016;27;21100;-48
2022/05/31 02:24:34;;;;;;;2.43;1.70;;;17.30;56.50;;;;;;5060916;27;20993;-48
2022/05/31 02:27:16;;;;;;;1.70;1.60;;;17.30;57.70;;;;;;5128863;27;20513;-46
2022/05/31 02:29:57;;;;;;;1.67;1.57;;;17.30;56.50;;;;;;5090654;27;21032;-49
2022/05/31 02:32:39;;;;;;;1.70;1.60;;;17.30;56.60;;;;;;5127939;27;20570;-47
2022/05/31 02:35:20;;;;;;;1.70;1.60;;;17.30;57.70;;;;;;5074294;27;21117;-49
2022/05/31 02:38:00;;;;;;;1.70;1.60;;;17.30;56.50;;;;;;5128436;27;20573;-47
2022/05/31 02:40:42;;;;;;;2.07;1.87;;;17.30;56.60;;;;;;5072921;28;20533;-47
2022/05/31 02:43:23;;;;;;;1.57;1.47;;;17.30;56.50;;;;;;5079244;28;20594;-48
2022/05/31 02:46:03;;;;;;;2.00;1.80;;;17.30;56.50;;;;;;5068662;27;20597;-47
2022/05/31 02:48:46;;;;;;;2.10;1.60;;;17.30;56.60;;;;;;5087609;27;20588;-48
2022/05/31 02:51:31;;;;;;;1.87;1.77;;;17.30;56.50;;;;;;5087796;28;21091;-47
2022/05/31 02:54:16;;;;;;;2.20;2.10;;;17.30;56.50;;;;;;5081678;27;20602;-48
2022/05/31 02:57:15;;;;;;;1.90;1.80;;;17.30;56.50;;;;;;5108331;27;21044;-48
2022/05/31 03:00:17;;;;;;;2.10;1.90;;;17.30;56.50;;;;;;5117043;27;20554;-48
2022/05/31 03:02:59;;;;;;;1.73;1.63;;;17.30;56.40;;;;;;5103978;27;20526;-48
2022/05/31 03:05:58;;;;;;;2.10;2.00;;;17.20;56.40;;;;;;5063227;27;20540;-49
2022/05/31 03:09:00;;;;;;;2.40;2.20;;;17.30;56.50;;;;;;5080559;28;21096;-48
2022/05/31 03:11:54;;;;;;;2.47;2.27;;;17.20;56.40;;;;;;5082506;28;20504;-49
2022/05/31 03:14:41;;;;;;;2.40;1.80;;;17.20;56.40;;;;;;5065546;28;20534;-49
2022/05/31 03:17:31;;;;;;;2.00;1.70;;;17.20;56.40;;;;;;5123278;27;20554;-46
2022/05/31 03:20:18;;;;;;;1.70;1.60;;;17.20;56.40;;;;;;5070976;27;21055;-47
2022/05/31 03:23:08;;;;;;;1.90;1.77;;;17.20;56.40;;;;;;5102891;27;20513;-47
2022/05/31 03:25:59;;;;;;;2.43;2.23;;;17.20;56.40;;;;;;5072000;27;20554;-50
2022/05/31 03:28:41;;;;;;;2.43;2.23;;;17.20;57.60;;;;;;5111808;27;20614;-47
2022/05/31 03:31:22;;;;;;;2.60;2.33;;;17.20;56.40;;;;;;5102741;27;20551;-50
2022/05/31 03:34:03;;;;;;;1.87;1.77;;;17.20;56.40;;;;;;5118868;27;20509;-50
2022/05/31 03:36:45;;;;;;;2.60;2.40;;;17.20;56.40;;;;;;5073705;28;20525;-47
2022/05/31 03:39:28;;;;;;;2.20;2.10;;;17.20;56.40;;;;;;5108596;27;20930;-49
2022/05/31 03:42:09;;;;;;;2.23;2.03;;;17.20;56.40;;;;;;5122093;27;20508;-48
2022/05/31 03:44:52;;;;;;;2.60;2.30;;;17.20;56.40;;;;;;5070766;27;20451;-50
2022/05/31 03:48:09;;;;;;;3.40;2.00;;;17.20;56.40;;;;;;5133360;27;1194827;-48
2022/05/31 03:51:02;;;;;;;3.00;2.80;;;17.20;56.30;;;;;;5069774;27;20602;-49
2022/05/31 03:53:44;;;;;;;2.27;2.07;;;17.20;56.20;;;;;;5123005;27;20493;-48
2022/05/31 03:56:27;;;;;;;2.33;2.03;;;17.20;56.30;;;;;;5082052;27;21051;-49
2022/05/31 03:59:08;;;;;;;2.60;2.40;;;17.20;56.30;;;;;;4998534;28;20533;-47
2022/05/31 04:01:57;;;;;;;2.43;2.27;;;17.20;56.30;;;;;;5124000;27;20514;-47
2022/05/31 04:04:39;;;;;;;2.40;2.20;;;17.10;56.20;;;;;;5103929;27;21068;-48
2022/05/31 04:07:25;;;;;;;2.80;2.60;;;17.10;56.20;;;;;;5103033;27;20651;-47
2022/05/31 04:10:10;;;;;;;2.67;2.47;;;17.10;56.20;;;;;;5073902;27;20549;-47
2022/05/31 04:12:53;;;;;;;2.00;1.87;;;17.10;56.20;;;;;;5077862;27;20557;-48
2022/05/31 04:16:04;;;;;;;2.33;2.23;;;17.10;56.20;;;;;;5072651;27;20603;-48
2022/05/31 04:18:48;;;;;;;2.57;2.37;;;17.10;56.20;;;;;;5122447;27;20521;-50
2022/05/31 04:21:29;;;;;;;2.43;2.23;;;17.10;57.30;;;;;;5120681;27;20509;-47
2022/05/31 04:24:11;;;;;;;3.20;2.67;;;17.10;56.20;;;;;;5078543;28;20926;-49
2022/05/31 04:26:55;;;;;;;2.43;2.23;;;17.10;56.20;;;;;;5082126;27;20523;-47
2022/05/31 04:29:51;;;;;;;2.93;2.40;;;17.10;57.40;;;;;;5073837;27;20959;-50
2022/05/31 04:32:53;;;;;;;3.30;2.43;;;17.10;56.30;;;;;;5082223;28;20537;-49
2022/05/31 04:35:42;;;;;;;2.70;2.50;;;17.10;56.20;;;;;;5081528;27;20600;-47
2022/05/31 04:38:22;;;;;;;2.17;1.80;;;17.10;56.20;;;;;;5082286;28;20512;-45
2022/05/31 04:41:15;;;;;;;4.07;3.00;;;17.10;56.20;;;;;;5065906;27;20544;-48
2022/05/31 04:44:07;;;;;;;2.27;2.10;;;17.10;56.20;;;;;;5062946;28;20586;-46
2022/05/31 04:46:52;;;;;;;2.77;2.33;;;17.10;56.30;;;;;;5120096;27;20886;-48
2022/05/31 04:49:51;;;;;;;2.60;2.40;;;17.10;56.20;;;;;;5074162;28;20915;-46
2022/05/31 04:52:32;;;;;;;2.47;2.27;;;17.10;56.30;;;;;;5139912;27;1333854;-48
2022/05/31 04:55:18;;;;;;;2.70;2.50;;;17.10;56.30;;;;;;5086672;27;20559;-49
2022/05/31 04:58:03;;;;;;;2.27;2.10;;;17.10;56.30;;;;;;5116563;27;20543;-48
2022/05/31 05:00:51;;;;;;;2.47;2.33;;;17.00;56.40;;;;;;4971489;28;20547;-47
2022/05/31 05:03:33;;;;;;;2.50;2.30;;;17.00;56.30;;;;;;5123665;27;21081;-52
2022/05/31 05:06:17;;;;;;;2.73;2.50;;;17.00;56.30;;;;;;5061135;27;20585;-49
2022/05/31 05:09:00;;;;;;;2.43;2.23;;;17.00;56.40;;;;;;5061573;27;20564;-49
2022/05/31 05:11:41;;;;;;;2.60;2.10;;;17.00;56.40;;;;;;5081277;28;21076;-48
2022/05/31 05:14:32;;;;;;;1.90;1.80;;;17.00;56.40;;;;;;5069734;27;20595;-47
2022/05/31 05:17:17;;;;;;;2.33;2.13;;;17.00;56.40;;;;;;5120539;27;20537;-48
2022/05/31 05:20:06;;;;;;;2.00;1.90;;;17.00;56.40;;;;;;5072066;27;20594;-48
2022/05/31 05:22:50;;;;;;;2.80;2.50;;;17.00;56.40;;;;;;5068971;27;20600;-46
2022/05/31 05:25:33;;;;;;;2.50;2.30;;;17.00;56.50;;;;;;5132324;27;20544;-46
2022/05/31 05:31:36;;;;;;;2.73;2.53;;;17.00;56.40;;;;;;5119434;27;20580;-48
2022/05/31 05:34:38;;;;;;;2.40;2.20;;;17.00;56.40;;;;;;5067803;28;20538;-47
2022/05/31 05:37:29;;;;;;;2.30;2.10;;;17.00;56.40;;;;;;5086722;27;20613;-47
2022/05/31 05:40:11;;;;;;;2.37;2.10;;;17.00;56.40;;;;;;5028012;28;21146;-47
2022/05/31 05:42:56;;;;;;;2.20;2.10;;;17.00;56.40;;;;;;5076735;28;20536;-48
2022/05/31 05:45:49;;;;;;;2.40;2.20;;;17.00;56.40;;;;;;5064407;28;20595;-46
2022/05/31 05:48:29;;;;;;;2.53;2.37;;;17.00;56.40;;;;;;5068214;28;20772;-49
2022/05/31 05:51:14;;;;;;;2.17;2.07;;;17.00;56.40;;;;;;5061490;28;20947;-48
2022/05/31 05:54:13;;;;;;;1.97;1.87;;;17.00;56.40;;;;;;5097988;27;20526;-48
2022/05/31 05:57:35;;;;;;;2.50;2.30;;;17.00;56.50;;;;;;5100683;27;20535;-48
2022/05/31 06:00:47;;;;;;;2.70;2.33;;;17.00;56.40;;;;;;5066571;27;20963;-46
2022/05/31 06:03:32;;;;;;;2.20;2.00;;;17.00;56.40;;;;;;5122055;27;20570;-49
2022/05/31 06:06:18;;;;;;;2.80;2.60;;;17.00;56.40;;;;;;5061779;27;20850;-48
2022/05/31 06:09:02;;;;;;;2.57;1.87;;;17.00;56.30;;;;;;5080682;28;20535;-46
2022/05/31 06:11:45;;;;;;;1.80;1.70;;;17.00;56.40;;;;;;5122078;27;20517;-50
2022/05/31 06:14:31;;;;;;;3.00;2.10;;;17.00;56.40;;;;;;5058555;28;20944;-48
2022/05/31 06:17:18;;;;;;;1.83;1.73;;;17.00;56.40;;;;;;5080798;27;20535;-48
2022/05/31 06:20:02;;;;;;;2.37;2.17;;;17.00;56.40;;;;;;5072174;27;20602;-47
2022/05/31 06:22:43;;;;;;;2.40;2.27;;;17.00;56.40;;;;;;5137796;27;1337891;-48
2022/05/31 06:25:30;;;;;;;2.23;2.03;;;17.00;56.50;;;;;;5066922;28;20544;-47
2022/05/31 06:28:31;;;;;;;2.43;2.07;;;17.00;56.50;;;;;;5112970;27;21084;-49
2022/05/31 06:31:12;;;;;;;1.83;1.73;;;17.00;56.50;;;;;;5102381;27;20538;-48
2022/05/31 06:33:53;;;;;;;2.30;2.10;;;17.00;56.50;;;;;;5101589;27;20944;-47
2022/05/31 06:36:40;;;;;;;2.60;2.23;;;17.00;56.50;;;;;;5081780;28;20930;-48
2022/05/31 06:39:21;;;;;;;2.60;2.40;;;17.00;56.40;;;;;;5059771;28;20534;-48
2022/05/31 06:42:04;;;;;;;2.30;2.10;;;17.00;56.40;;;;;;5080979;28;20556;-48
2022/05/31 06:45:12;;;;;;;2.63;2.43;;;17.00;56.50;;;;;;5088831;27;20558;-48
2022/05/31 06:48:13;;;;;;;2.03;1.90;;;16.90;56.50;;;;;;5113117;27;20605;-49
2022/05/31 06:51:14;;;;;;;2.73;2.53;;;17.00;56.50;;;;;;5045138;27;20554;-46
2022/05/31 06:57:35;;;;;;;2.70;2.50;;;16.90;56.40;;;;;;5099485;27;20548;-46
2022/05/31 07:00:29;;;;;;;2.93;2.50;;;16.90;56.50;;;;;;5074580;27;20556;-48
2022/05/31 07:03:10;;;;;;;3.17;2.90;;;16.90;56.60;;;;;;5056149;27;21932;-49
2022/05/31 07:05:58;;;;;;;2.87;2.67;;;16.90;56.60;;;;;;5059027;28;20607;-46
2022/05/31 07:08:39;;;;;;;2.60;2.40;;;16.90;56.50;;;;;;5067245;27;21101;-49
2022/05/31 07:11:41;;;;;;;2.50;2.30;;;16.90;56.60;;;;;;5112700;27;20509;-49
2022/05/31 07:14:40;;;;;;;3.50;2.93;;;16.90;56.70;;;;;;5091821;27;20950;-47
2022/05/31 07:17:52;;;;;;;2.30;2.10;;;16.90;56.60;;;;;;5061500;28;20616;-47
2022/05/31 07:20:34;;;;;;;2.23;2.13;;;16.90;56.60;;;;;;5061984;27;20570;-49
2022/05/31 07:23:15;;;;;;;2.60;2.03;;;16.90;56.70;;;;;;5074446;28;20566;-47
2022/05/31 07:26:04;;;;;;;2.50;2.30;;;16.90;56.70;;;;;;5062771;27;20540;-49
2022/05/31 07:29:06;;;;;;;2.20;2.10;;;16.90;56.70;;;;;;5065381;27;20596;-47
2022/05/31 07:31:48;;;;;;;8.43;3.20;;;16.90;56.60;;;;;;5137812;27;20516;-46
2022/05/31 07:35:00;;;;;;;2.30;2.07;;;16.90;56.60;;;;;;5094958;27;20573;-48
2022/05/31 07:37:42;;;;;;;2.33;2.13;;;16.90;56.70;;;;;;5062558;27;21007;-48
2022/05/31 07:40:24;;;;;;;2.40;2.20;;;16.90;56.70;;;;;;5085202;27;20928;-48
2022/05/31 07:43:04;;;;;;;2.97;2.40;;;16.90;56.70;;;;;;5080524;28;20535;-51
2022/05/31 07:45:48;;;;;;;2.40;2.20;;;16.90;56.70;;;;;;5055972;27;20616;-49
2022/05/31 07:48:29;;;;;;;2.57;2.37;;;16.90;56.80;;;;;;5069237;28;20537;-49
2022/05/31 07:51:10;;;;;;;2.33;2.17;;;16.90;56.80;;;;;;5079309;27;20555;-48
2022/05/31 07:54:13;;;;;;;2.80;2.60;;;16.90;56.80;;;;;;5070644;28;20519;-49
2022/05/31 08:00:27;;;;;;;2.10;1.90;;;16.80;56.80;;;;;;5067224;27;20584;-47
2022/05/31 08:03:10;;;;;;;3.13;2.37;;;16.90;56.80;;;;;;5124471;27;20516;-47
2022/05/31 08:05:51;;;;;;;2.43;2.23;;;16.80;56.80;;;;;;5105490;27;21048;-50
2022/05/31 08:08:38;;;;;;;2.50;2.30;;;16.80;56.80;;;;;;5073090;27;20960;-50
2022/05/31 08:11:20;;;;;;;2.17;2.00;;;16.80;56.90;;;;;;5126104;27;20544;-48
2022/05/31 08:14:03;;;;;;;2.50;2.30;;;16.80;56.80;;;;;;5077917;27;20581;-49
2022/05/31 08:16:44;;;;;;;2.80;2.60;;;16.80;56.90;;;;;;5082256;27;20930;-46
2022/05/31 08:19:26;;;;;;;2.50;2.30;;;16.80;56.80;;;;;;5076652;28;20943;-48
2022/05/31 08:22:07;;;;;;;3.57;2.80;;;16.80;56.80;;;;;;5120044;27;20552;-50
2022/05/31 08:24:49;;;;;;;2.37;2.17;;;16.80;56.90;;;;;;5072307;27;21350;-46
2022/05/31 08:27:32;;;;;;;2.90;2.70;;;16.80;57.00;;;;;;5078538;28;20523;-48
2022/05/31 08:30:12;;;;;;;2.60;2.40;;;16.80;57.00;;;;;;5062899;28;20537;-47
2022/05/31 08:32:54;;;;;;;2.50;2.30;;;16.80;56.90;;;;;;5122540;27;20593;-47
2022/05/31 08:35:34;;;;;;;3.23;2.93;;;16.80;57.10;;;;;;5076666;27;21139;-48
2022/05/31 08:38:35;;;;;;;3.53;2.90;;;16.80;57.00;;;;;;5081203;28;20531;-46
2022/05/31 08:41:25;;;;;;;2.93;2.67;;;16.80;57.20;;;;;;5064290;27;20562;-48
2022/05/31 08:44:13;;;;;;;2.73;2.53;;;16.70;57.20;;;;;;5109158;27;21091;-49
2022/05/31 08:47:01;;;;;;;2.93;2.73;;;16.80;57.40;;;;;;5119823;27;20581;-48
2022/05/31 08:53:18;;;;;;;3.57;2.63;;;16.80;57.50;;;;;;5075717;27;20622;-47
2022/05/31 08:59:04;;;;;;;3.13;2.83;;;16.80;57.50;;;;;;5070465;27;21126;-48
2022/05/31 09:01:51;;;;;;;2.20;2.00;;;16.70;57.30;;;;;;5080478;27;20532;-49
2022/05/31 09:04:39;;;;;;;3.47;3.17;;;16.70;57.20;;;;;;5078787;27;20889;-48
2022/05/31 09:07:23;;;;;;;2.63;2.43;;;16.70;57.30;;;;;;5088118;27;20593;-47
2022/05/31 09:10:14;;;;;;;2.00;1.83;;;16.70;57.30;;;;;;5071575;28;20552;-47
2022/05/31 09:12:59;;;;;;;2.30;2.10;;;16.70;57.20;;;;;;5075550;28;21397;-49
2022/05/31 09:15:45;;;;;;;2.10;1.93;;;16.80;57.40;;;;;;5064800;27;20622;-48
2022/05/31 09:18:39;;;;;;;2.23;2.07;;;16.70;57.30;;;;;;5102490;27;20584;-51
2022/05/31 09:21:26;;;;;;;4.40;2.90;;;16.70;57.30;;;;;;5101581;27;20616;-48
2022/05/31 09:24:14;;;;;;;2.57;2.37;;;16.70;57.00;;;;;;5095771;27;20507;-50
2022/05/31 09:27:04;;;;;;;2.47;2.10;;;16.80;57.20;;;;;;5118459;27;20514;-46
2022/05/31 09:29:59;;;;;;;2.77;2.57;;;16.70;57.20;;;;;;5039058;28;20585;-46
2022/05/31 09:32:58;;;;;;;2.40;2.20;;;16.70;57.20;;;;;;5120074;27;20553;-47
2022/05/31 09:35:51;;;;;;;2.93;2.70;;;16.80;57.20;;;;;;5064287;28;21146;-47
2022/05/31 09:38:54;;;;;;;2.50;2.30;;;16.70;57.10;;;;;;5094707;27;20598;-49
2022/05/31 09:41:41;;;;;;;2.70;2.50;;;16.70;56.90;;;;;;5081968;28;20508;-48
2022/05/31 09:44:28;;;;;;;3.00;2.50;;;16.70;57.00;;;;;;5062089;27;20548;-46
2022/05/31 09:47:19;;;;;;;3.10;2.67;;;16.70;57.10;;;;;;5078234;28;20563;-47
2022/05/31 09:50:00;;;;;;;5.13;2.33;;;16.70;57.20;;;;;;5091637;27;20538;-47
2022/05/31 09:52:45;;;;;;;2.30;2.10;;;16.70;57.20;;;;;;5081779;27;20572;-50
2022/05/31 09:59:09;;;;;;;2.40;2.20;;;16.70;57.30;;;;;;5068090;27;20679;-46
2022/05/31 10:02:20;;;;;;;2.80;1.80;;;16.70;57.30;;;;;;5082166;28;20507;-46
2022/05/31 10:05:14;;;;;;;2.33;2.20;;;16.70;57.40;;;;;;5071217;28;20594;-49
2022/05/31 10:07:54;;;;;;;1.80;1.70;;;16.70;57.30;;;;;;5190712;27;20585;-47
2022/05/31 10:10:37;;;;;;;2.83;2.53;;;16.70;57.30;;;;;;5067934;27;20607;-48
2022/05/31 10:13:38;;;;;;;1.83;1.73;;;16.70;57.50;;;;;;5073870;27;20691;-50
2022/05/31 10:16:23;;;;;;;2.17;2.03;;;16.70;57.30;;;;;;5062488;27;20622;-48
2022/05/31 10:19:06;;;;;;;2.87;2.67;;;16.70;57.40;;;;;;5111249;27;20517;-46
2022/05/31 10:21:47;;;;;;;1.90;1.80;;;16.70;57.20;;;;;;5075315;28;20536;-48
2022/05/31 10:24:37;;;;;;;2.50;2.30;;;16.70;58.00;;;;;;5073476;28;20594;-48
2022/05/31 10:27:38;;;;;;;2.40;2.20;;;16.70;57.40;;;;;;5155479;27;20599;-49
2022/05/31 10:30:23;;;;;;;3.10;2.37;;;16.80;57.50;;;;;;5070439;27;20615;-50
2022/05/31 10:33:21;;;;;;;2.00;1.80;;;16.80;57.40;;;;;;5122245;27;20542;-46
2022/05/31 10:36:15;;;;;;;2.33;2.13;;;16.80;57.30;;;;;;5061944;27;20603;-47
2022/05/31 10:38:56;;;;;;;2.80;1.87;;;16.80;57.30;;;;;;5101815;27;20575;-47
2022/05/31 10:41:40;;;;;;;1.70;1.60;;;16.80;57.30;;;;;;5080731;28;20519;-48
2022/05/31 10:44:36;;;;;;;1.83;1.73;;;16.80;57.40;;;;;;5075995;27;20606;-49
2022/05/31 10:47:20;;;;;;;3.57;2.40;;;16.80;57.30;;;;;;5080190;28;20950;-50
2022/05/31 10:50:04;;;;;;;1.57;1.47;;;16.80;57.30;;;;;;5096774;27;20549;-49
2022/05/31 10:52:58;;;;;;;2.27;1.90;;;16.80;57.30;;;;;;5097784;27;20529;-67
2022/05/31 10:55:42;;;;;;;1.80;1.70;;;16.80;57.30;;;;;;5065854;28;20602;-48
2022/05/31 10:58:46;;;;;;;2.70;1.97;;;16.70;57.30;;;;;;5110118;27;20601;-47
2022/05/31 11:01:56;;;;;;;1.70;1.60;;;16.80;57.30;;;;;;5061703;27;20550;-49
2022/05/31 11:04:55;;;;;;;2.50;2.30;;;16.80;57.20;;;;;;5113876;27;20595;-47
2022/05/31 11:11:27;;;;;;;2.07;1.87;;;16.80;57.30;;;;;;5117890;27;20651;-45
2022/05/31 11:14:05;;;;;;;2.80;2.17;;;16.80;57.30;;;;;;5077229;27;20567;-48
2022/05/31 11:16:55;;;;;;;2.30;2.10;;;16.80;57.40;;;;;;5122695;27;21028;-48
2022/05/31 11:19:48;;;;;;;2.50;2.40;;;16.80;57.40;;;;;;5075931;27;20544;-48
2022/05/31 11:22:40;;;;;;;2.43;2.20;;;16.80;57.40;;;;;;5102974;27;20631;-46
2022/05/31 11:25:38;;;;;;;3.40;2.20;;;16.80;57.40;;;;;;5086495;27;20547;-47
2022/05/31 11:28:32;;;;;;;2.30;2.20;;;16.80;57.40;;;;;;5073036;28;20973;-47
2022/05/31 11:31:23;;;;;;;2.43;2.23;;;16.80;57.30;;;;;;5046828;27;20955;-47
2022/05/31 11:34:21;;;;;;;2.30;2.10;;;16.80;57.40;;;;;;5100297;27;20506;-48
2022/05/31 11:37:15;;;;;;;2.30;2.10;;;16.80;57.50;;;;;;5100983;27;20570;-50
2022/05/31 11:40:07;;;;;;;2.37;2.17;;;16.80;57.30;;;;;;5113901;27;20949;-48
2022/05/31 11:43:09;;;;;;;2.40;2.20;;;16.80;57.20;;;;;;5118895;27;20537;-49
2022/05/31 11:45:59;;;;;;;2.40;2.20;;;16.80;57.20;;;;;;5105471;27;20584;-49
2022/05/31 11:48:52;;;;;;;2.67;2.10;;;16.80;57.20;;;;;;5122422;27;20565;-49
2022/05/31 11:51:57;;;;;;;2.43;2.20;;;16.80;57.20;;;;;;5080880;27;20499;-47
2022/05/31 11:55:28;;;;;;;2.00;1.90;;;16.80;57.20;;;;;;5135727;27;20536;-47
2022/05/31 11:58:27;;;;;;;1.80;1.70;;;16.80;57.20;;;;;;5074405;28;20541;-49
2022/05/31 12:01:14;;;;;;;2.47;2.27;;;16.80;58.00;;;;;;5058438;27;20598;-47
2022/05/31 12:04:06;;;;;;;1.90;1.80;;;16.80;57.20;;;;;;5081700;28;21034;-47
2022/05/31 12:06:55;;;;;;;2.40;2.30;;;16.80;57.20;;;;;;5082114;28;20918;-48
2022/05/31 12:09:45;;;;;;;2.30;2.10;;;16.80;57.30;;;;;;5076069;27;20587;-47
2022/05/31 12:12:30;;;;;;;2.20;1.93;;;16.80;57.20;;;;;;5082316;28;20519;-49
2022/05/31 12:15:23;;;;;;;1.67;1.50;;;16.80;57.20;;;;;;5070345;28;20582;-48
2022/05/31 12:18:12;;;;;;;2.13;1.93;;;16.80;57.30;;;;;;5081109;28;20527;-48
2022/05/31 12:21:02;;;;;;;2.20;2.10;;;16.80;57.30;;;;;;5054771;27;20530;-46
2022/05/31 12:23:49;;;;;;;2.03;1.90;;;16.80;57.30;;;;;;5122383;27;21015;-50
2022/05/31 12:26:35;;;;;;;2.10;2.00;;;16.80;57.40;;;;;;5122212;27;20976;-50
2022/05/31 12:29:19;;;;;;;2.23;2.03;;;16.80;57.50;;;;;;5124625;27;20601;-47
2022/05/31 12:32:27;;;;;;;2.50;2.30;;;16.80;57.60;;;;;;5122881;27;20517;-47
2022/05/31 12:35:11;;;;;;;2.13;1.90;;;16.80;57.80;;;;;;5092002;27;20582;-48
2022/05/31 12:37:53;;;;;;;2.10;2.00;;;16.80;57.90;;;;;;5074444;27;20962;-48
2022/05/31 12:40:42;;;;;;;2.07;1.97;;;16.80;57.80;;;;;;5068655;28;21320;-50
2022/05/31 12:43:51;;;;;;;1.90;1.80;;;16.80;57.70;;;;;;5079862;28;21104;-48
2022/05/31 12:46:37;;;;;;;1.77;1.67;;;16.80;57.60;;;;;;5102248;27;20514;-49
2022/05/31 12:49:26;;;;;;;3.40;2.70;;;16.80;57.60;;;;;;5078536;28;20520;-47
2022/05/31 12:55:58;;;;;;;3.10;2.50;;;16.80;57.50;;;;;;5077609;27;20578;-48
2022/05/31 12:58:49;;;;;;;3.00;2.70;;;16.90;57.60;;;;;;5101171;27;20539;-48
2022/05/31 13:01:43;;;;;;;3.23;2.60;;;17.00;57.40;;;;;;5101409;27;20530;-49
2022/05/31 13:04:28;;;;;;;2.53;2.30;;;17.10;57.20;;;;;;5075784;27;20541;-48
2022/05/31 13:07:14;;;;;;;6.53;2.53;;;17.20;57.30;;;;;;5065123;28;20571;-47
2022/05/31 13:10:34;;;;;;;3.40;2.50;;;17.20;56.60;;;;;;5074580;28;20570;-46
2022/05/31 13:19:43;;;;;;;3.10;2.80;;;17.20;56.30;;;;;;5105357;27;20566;-47
2022/05/31 13:22:24;;;;;;;2.60;2.40;;;17.20;56.10;;;;;;5121817;27;20509;-50
2022/05/31 13:25:14;;;;;;;2.53;2.20;;;17.10;55.70;;;;;;5091714;27;20585;-47
2022/05/31 13:27:58;;;;;;;1.80;1.70;;;17.10;55.80;;;;;;5076592;28;20544;-48
2022/05/31 13:30:43;;;;;;;2.37;2.20;;;17.10;56.20;;;;;;5088212;27;20565;-49
2022/05/31 13:33:24;;;;;;;2.53;2.33;;;17.10;56.40;;;;;;5081522;28;20513;-49
2022/05/31 13:36:13;;;;;;;5.73;2.40;;;17.10;56.40;;;;;;5063063;27;20608;-46
2022/05/31 13:38:57;;;;;;;2.43;2.20;;;17.10;56.20;;;;;;5082783;27;20612;-49
2022/05/31 13:41:47;;;;;;;2.40;2.20;;;17.00;56.40;;;;;;5109851;27;20540;-49
2022/05/31 13:44:31;;;;;;;2.57;2.37;;;17.10;56.70;;;;;;5073573;28;20528;-44
2022/05/31 13:47:19;;;;;;;2.73;1.97;;;17.10;56.80;;;;;;5102367;27;20587;-49
2022/05/31 13:50:06;;;;;;;2.50;2.30;;;17.20;56.70;;;;;;5073807;27;20537;-49
2022/05/31 13:52:52;;;;;;;2.60;2.00;;;17.20;56.70;;;;;;5073600;27;20543;-49
2022/05/31 13:55:33;;;;;;;2.50;2.30;;;17.30;56.90;;;;;;5067509;27;20544;-48
2022/05/31 13:58:22;;;;;;;2.40;2.20;;;17.30;56.70;;;;;;5073235;27;20613;-47
2022/05/31 14:01:06;;;;;;;2.67;2.33;;;17.30;56.70;;;;;;5064805;27;21133;-49
2022/05/31 14:03:48;;;;;;;1.90;1.80;;;17.40;56.70;;;;;;5079757;27;21176;-48
2022/05/31 14:06:37;;;;;;;2.20;2.10;;;17.40;56.70;;;;;;5110940;27;21110;-49
2022/05/31 14:09:26;;;;;;;2.60;2.40;;;17.40;56.60;;;;;;5075914;28;20557;-49
2022/05/31 14:12:11;;;;;;;3.10;1.93;;;17.40;56.50;;;;;;5100822;27;20564;-49
2022/05/31 14:14:53;;;;;;;2.13;1.73;;;17.40;56.50;;;;;;5091436;27;20587;-47
2022/05/31 14:17:37;;;;;;;2.10;1.90;;;17.50;56.40;;;;;;5122721;27;20578;-49
2022/05/31 14:20:28;;;;;;;1.83;1.73;;;17.50;56.40;;;;;;5059859;28;20546;-48
2022/05/31 14:23:15;;;;;;;2.43;2.23;;;17.50;56.40;;;;;;5142960;27;20576;-49
2022/05/31 14:25:58;;;;;;;2.40;2.20;;;17.50;56.50;;;;;;5089133;27;20543;-49
2022/05/31 14:29:13;;;;;;;3.20;1.90;;;17.50;56.40;;;;;;5109333;27;20546;-46
2022/05/31 14:32:29;;;;;;;2.37;1.97;;;17.50;55.80;;;;;;5096434;27;20522;-49
2022/05/31 14:35:19;;;;;;;1.90;1.80;;;17.50;55.90;;;;;;5077230;27;20602;-48
2022/05/31 14:38:05;;;;;;;2.17;2.00;;;17.60;56.20;;;;;;5111030;27;21098;-49
2022/05/31 14:40:56;;;;;;;2.20;1.80;;;17.50;56.10;;;;;;5084786;27;20675;-47
2022/05/31 14:43:52;;;;;;;2.20;2.00;;;17.50;56.30;;;;;;5112030;27;20670;-49
2022/05/31 14:46:35;;;;;;;2.10;1.90;;;17.60;56.40;;;;;;5081488;28;20519;-48
2022/05/31 14:49:28;;;;;;;2.47;2.27;;;17.60;56.40;;;;;;5117128;27;20881;-48
2022/05/31 14:52:24;;;;;;;2.17;1.97;;;17.50;56.30;;;;;;5077559;28;20532;-50
2022/05/31 14:55:12;;;;;;;1.97;1.77;;;17.60;56.50;;;;;;5092791;27;20533;-48
2022/05/31 15:01:01;;;;;;;2.10;1.73;;;17.60;56.50;;;;;;5064676;27;20545;-49
2022/05/31 15:03:45;;;;;;;2.33;2.13;;;17.60;56.50;;;;;;5137221;27;20513;-46
2022/05/31 15:06:30;;;;;;;1.97;1.87;;;17.50;56.40;;;;;;5058821;27;20553;-47
2022/05/31 15:09:24;;;;;;;2.30;1.90;;;17.50;56.40;;;;;;5119669;27;20541;-53
2022/05/31 15:21:15;;;;;;;1.83;1.73;;;17.60;56.70;;;;;;5059747;27;20545;-48
2022/05/31 15:23:57;;;;;;;2.17;1.97;;;17.60;56.60;;;;;;5080587;27;20997;-48
2022/05/31 15:26:43;;;;;;;2.30;1.73;;;17.60;56.70;;;;;;5100095;27;20514;-45
2022/05/31 15:29:26;;;;;;;1.83;1.67;;;17.60;56.60;;;;;;5106999;27;20660;-47